Corwin Springs, Montana
Current Conditions -  °F | °C
As of 12:53 AM on Sunday 21 Dec 2014 (Local Time) from KLVM Reporting Station
Overcast Overcast  
Wind Chill: 35°   Ceiling: 6000
Heat Index: 44°   Visibility: 10mi
Dew Point: 24°   Wind: 25mph
Humidity: 45%   Direction: 230°SW
Pressure: 29.58"   Gusts: 36mph
Location:  45.0924°N, 110.236°W
Report Text: KLVM 210753Z AUTO 23022G31KT 10SM BKN060 OVC070 07/M04 A2958 RMK AO2 PK WND 22038/0710 PRESFR SLP017 T00671044
Loading
Personal Weather Stations






























Interactive Weather Map New forecast layout! Learn more

10-Day Weather Forecast

Advertisements
Track Severe Weather on mobile